sensor_id;sensor_type;location;lat;lon;timestamp;temperature;humidity
20057;DHT22;10189;49.546;7.906;2024-03-22T00:02:07;5.90;99.90
20057;DHT22;10189;49.546;7.906;2024-03-22T00:04:35;5.90;99.90
20057;DHT22;10189;49.546;7.906;2024-03-22T00:07:02;5.90;99.90
20057;DHT22;10189;49.546;7.906;2024-03-22T00:09:29;5.90;99.90
20057;DHT22;10189;49.546;7.906;2024-03-22T00:11:54;5.90;99.90
20057;DHT22;10189;49.546;7.906;2024-03-22T00:14:20;5.90;99.90
20057;DHT22;10189;49.546;7.906;2024-03-22T00:16:46;5.80;99.90
20057;DHT22;10189;49.546;7.906;2024-03-22T00:19:12;5.80;99.90
20057;DHT22;10189;49.546;7.906;2024-03-22T00:21:38;5.80;99.90
20057;DHT22;10189;49.546;7.906;2024-03-22T00:24:04;5.80;99.90
20057;DHT22;10189;49.546;7.906;2024-03-22T00:26:30;5.80;99.90
20057;DHT22;10189;49.546;7.906;2024-03-22T00:28:56;5.80;99.90
20057;DHT22;10189;49.546;7.906;2024-03-22T00:31:25;5.80;99.90
20057;DHT22;10189;49.546;7.906;2024-03-22T00:33:51;5.80;99.90
20057;DHT22;10189;49.546;7.906;2024-03-22T00:36:17;5.80;99.90
20057;DHT22;10189;49.546;7.906;2024-03-22T00:38:43;5.80;99.90
20057;DHT22;10189;49.546;7.906;2024-03-22T00:41:09;5.80;99.90
20057;DHT22;10189;49.546;7.906;2024-03-22T00:43:35;5.80;99.90
20057;DHT22;10189;49.546;7.906;2024-03-22T00:46:01;5.80;99.90
20057;DHT22;10189;49.546;7.906;2024-03-22T00:48:28;5.80;99.90
20057;DHT22;10189;49.546;7.906;2024-03-22T00:50:54;5.90;99.90
20057;DHT22;10189;49.546;7.906;2024-03-22T00:53:20;5.90;99.90
20057;DHT22;10189;49.546;7.906;2024-03-22T00:55:46;5.90;99.90
20057;DHT22;10189;49.546;7.906;2024-03-22T00:58:18;5.90;99.90
20057;DHT22;10189;49.546;7.906;2024-03-22T01:00:44;5.80;99.90
20057;DHT22;10189;49.546;7.906;2024-03-22T01:03:10;5.80;99.90
20057;DHT22;10189;49.546;7.906;2024-03-22T01:05:37;5.80;99.90
20057;DHT22;10189;49.546;7.906;2024-03-22T01:08:03;5.80;99.90
20057;DHT22;10189;49.546;7.906;2024-03-22T01:10:30;5.80;99.90
20057;DHT22;10189;49.546;7.906;2024-03-22T01:12:56;5.80;99.90
20057;DHT22;10189;49.546;7.906;2024-03-22T01:15:22;5.80;99.90
20057;DHT22;10189;49.546;7.906;2024-03-22T01:17:48;5.80;99.90
20057;DHT22;10189;49.546;7.906;2024-03-22T01:20:14;5.80;99.90
20057;DHT22;10189;49.546;7.906;2024-03-22T01:22:40;5.80;99.90
20057;DHT22;10189;49.546;7.906;2024-03-22T01:25:06;5.70;99.90
20057;DHT22;10189;49.546;7.906;2024-03-22T01:27:32;5.70;99.90
20057;DHT22;10189;49.546;7.906;2024-03-22T01:29:58;5.70;99.90
20057;DHT22;10189;49.546;7.906;2024-03-22T01:32:24;5.70;99.90
20057;DHT22;10189;49.546;7.906;2024-03-22T01:34:50;5.60;99.90
20057;DHT22;10189;49.546;7.906;2024-03-22T01:37:16;5.60;99.90
20057;DHT22;10189;49.546;7.906;2024-03-22T01:39:42;5.60;99.90
20057;DHT22;10189;49.546;7.906;2024-03-22T01:42:08;5.60;99.90
20057;DHT22;10189;49.546;7.906;2024-03-22T01:44:34;5.60;99.90
20057;DHT22;10189;49.546;7.906;2024-03-22T01:47:00;5.60;99.90
20057;DHT22;10189;49.546;7.906;2024-03-22T01:49:26;5.60;99.90
20057;DHT22;10189;49.546;7.906;2024-03-22T01:51:53;5.60;99.90
20057;DHT22;10189;49.546;7.906;2024-03-22T01:54:20;5.60;99.90
20057;DHT22;10189;49.546;7.906;2024-03-22T01:56:46;5.70;99.90
20057;DHT22;10189;49.546;7.906;2024-03-22T01:59:13;5.70;99.90
20057;DHT22;10189;49.546;7.906;2024-03-22T02:01:39;5.60;99.90
20057;DHT22;10189;49.546;7.906;2024-03-22T02:04:06;5.60;99.90
20057;DHT22;10189;49.546;7.906;2024-03-22T02:06:33;5.60;99.90
20057;DHT22;10189;49.546;7.906;2024-03-22T02:08:59;5.50;99.90
20057;DHT22;10189;49.546;7.906;2024-03-22T02:11:26;5.50;99.90
20057;DHT22;10189;49.546;7.906;2024-03-22T02:13:52;5.40;99.90
20057;DHT22;10189;49.546;7.906;2024-03-22T02:16:19;5.30;99.90
20057;DHT22;10189;49.546;7.906;2024-03-22T02:18:45;5.30;99.90
20057;DHT22;10189;49.546;7.906;2024-03-22T02:21:11;5.20;99.90
20057;DHT22;10189;49.546;7.906;2024-03-22T02:23:38;5.20;99.90
20057;DHT22;10189;49.546;7.906;2024-03-22T02:26:06;5.20;99.90
20057;DHT22;10189;49.546;7.906;2024-03-22T02:28:33;5.20;99.90
20057;DHT22;10189;49.546;7.906;2024-03-22T02:31:00;5.20;99.90
20057;DHT22;10189;49.546;7.906;2024-03-22T02:33:26;5.30;99.90
20057;DHT22;10189;49.546;7.906;2024-03-22T02:35:52;5.40;99.90
20057;DHT22;10189;49.546;7.906;2024-03-22T02:38:18;5.50;99.90
20057;DHT22;10189;49.546;7.906;2024-03-22T02:40:45;5.70;99.90
20057;DHT22;10189;49.546;7.906;2024-03-22T02:43:12;5.80;99.90
20057;DHT22;10189;49.546;7.906;2024-03-22T02:45:38;6.00;99.90
20057;DHT22;10189;49.546;7.906;2024-03-22T02:48:05;6.10;99.90
20057;DHT22;10189;49.546;7.906;2024-03-22T02:50:34;6.20;99.90
20057;DHT22;10189;49.546;7.906;2024-03-22T02:53:01;6.30;99.90
20057;DHT22;10189;49.546;7.906;2024-03-22T02:55:27;6.40;99.90
20057;DHT22;10189;49.546;7.906;2024-03-22T02:57:53;6.60;99.90
20057;DHT22;10189;49.546;7.906;2024-03-22T03:00:19;6.60;99.90
20057;DHT22;10189;49.546;7.906;2024-03-22T03:02:45;6.80;99.90
20057;DHT22;10189;49.546;7.906;2024-03-22T03:05:11;6.80;99.90
20057;DHT22;10189;49.546;7.906;2024-03-22T03:07:37;6.90;99.90
20057;DHT22;10189;49.546;7.906;2024-03-22T03:10:03;6.90;99.90
20057;DHT22;10189;49.546;7.906;2024-03-22T03:12:30;6.90;99.90
20057;DHT22;10189;49.546;7.906;2024-03-22T03:14:56;6.90;99.90
20057;DHT22;10189;49.546;7.906;2024-03-22T03:17:21;6.90;99.90
20057;DHT22;10189;49.546;7.906;2024-03-22T03:19:48;6.80;99.90
20057;DHT22;10189;49.546;7.906;2024-03-22T03:22:15;6.70;99.90
20057;DHT22;10189;49.546;7.906;2024-03-22T03:24:41;6.50;99.90
20057;DHT22;10189;49.546;7.906;2024-03-22T03:27:07;6.30;99.90
20057;DHT22;10189;49.546;7.906;2024-03-22T03:29:33;6.10;99.90
20057;DHT22;10189;49.546;7.906;2024-03-22T03:31:59;6.00;99.90
20057;DHT22;10189;49.546;7.906;2024-03-22T03:34:25;5.90;99.90
20057;DHT22;10189;49.546;7.906;2024-03-22T03:36:51;5.80;99.90
20057;DHT22;10189;49.546;7.906;2024-03-22T03:39:16;5.80;99.90
20057;DHT22;10189;49.546;7.906;2024-03-22T03:41:42;5.70;99.90
20057;DHT22;10189;49.546;7.906;2024-03-22T03:44:08;5.60;99.90
20057;DHT22;10189;49.546;7.906;2024-03-22T03:46:34;5.60;99.90
20057;DHT22;10189;49.546;7.906;2024-03-22T03:49:00;5.60;99.90
20057;DHT22;10189;49.546;7.906;2024-03-22T03:51:26;5.60;99.90
20057;DHT22;10189;49.546;7.906;2024-03-22T03:53:52;5.60;99.90
20057;DHT22;10189;49.546;7.906;2024-03-22T03:56:18;5.60;99.90
20057;DHT22;10189;49.546;7.906;2024-03-22T03:58:46;5.70;99.90
20057;DHT22;10189;49.546;7.906;2024-03-22T04:01:12;5.80;99.90
20057;DHT22;10189;49.546;7.906;2024-03-22T04:03:38;5.90;99.90
20057;DHT22;10189;49.546;7.906;2024-03-22T04:06:04;6.00;99.90
20057;DHT22;10189;49.546;7.906;2024-03-22T04:08:32;6.10;99.90
20057;DHT22;10189;49.546;7.906;2024-03-22T04:10:58;6.10;99.90
20057;DHT22;10189;49.546;7.906;2024-03-22T04:13:24;6.20;99.90
20057;DHT22;10189;49.546;7.906;2024-03-22T04:15:51;6.20;99.90
20057;DHT22;10189;49.546;7.906;2024-03-22T04:18:17;6.20;99.90
20057;DHT22;10189;49.546;7.906;2024-03-22T04:20:52;6.20;99.90
20057;DHT22;10189;49.546;7.906;2024-03-22T04:23:20;6.20;99.90
20057;DHT22;10189;49.546;7.906;2024-03-22T04:25:59;6.20;99.90
20057;DHT22;10189;49.546;7.906;2024-03-22T04:28:30;6.20;99.90
20057;DHT22;10189;49.546;7.906;2024-03-22T04:33:22;6.20;99.90
20057;DHT22;10189;49.546;7.906;2024-03-22T04:35:48;6.30;99.90
20057;DHT22;10189;49.546;7.906;2024-03-22T04:38:14;6.30;99.90
20057;DHT22;10189;49.546;7.906;2024-03-22T04:40:40;6.40;99.90
20057;DHT22;10189;49.546;7.906;2024-03-22T04:43:07;6.40;99.90
20057;DHT22;10189;49.546;7.906;2024-03-22T04:45:33;6.50;99.90
20057;DHT22;10189;49.546;7.906;2024-03-22T04:48:01;6.50;99.90
20057;DHT22;10189;49.546;7.906;2024-03-22T04:50:28;6.50;99.90
20057;DHT22;10189;49.546;7.906;2024-03-22T04:52:54;6.60;99.90
20057;DHT22;10189;49.546;7.906;2024-03-22T04:55:20;6.60;99.90
20057;DHT22;10189;49.546;7.906;2024-03-22T04:57:46;6.60;99.90
20057;DHT22;10189;49.546;7.906;2024-03-22T05:00:13;6.70;99.90
20057;DHT22;10189;49.546;7.906;2024-03-22T05:02:40;6.60;99.90
20057;DHT22;10189;49.546;7.906;2024-03-22T05:05:06;6.70;99.90
20057;DHT22;10189;49.546;7.906;2024-03-22T05:07:33;6.70;99.90
20057;DHT22;10189;49.546;7.906;2024-03-22T05:09:59;6.70;99.90
20057;DHT22;10189;49.546;7.906;2024-03-22T05:12:25;6.80;99.90
20057;DHT22;10189;49.546;7.906;2024-03-22T05:14:51;6.80;99.90
20057;DHT22;10189;49.546;7.906;2024-03-22T05:17:17;6.90;99.90
20057;DHT22;10189;49.546;7.906;2024-03-22T05:19:43;6.90;99.90
20057;DHT22;10189;49.546;7.906;2024-03-22T05:22:09;6.90;99.90
20057;DHT22;10189;49.546;7.906;2024-03-22T05:24:35;6.90;99.90
20057;DHT22;10189;49.546;7.906;2024-03-22T05:27:00;6.90;99.90
20057;DHT22;10189;49.546;7.906;2024-03-22T05:29:26;6.90;99.90
20057;DHT22;10189;49.546;7.906;2024-03-22T05:31:52;6.90;99.90
20057;DHT22;10189;49.546;7.906;2024-03-22T05:34:18;6.90;99.90
20057;DHT22;10189;49.546;7.906;2024-03-22T05:36:45;7.00;99.90
20057;DHT22;10189;49.546;7.906;2024-03-22T05:39:12;7.00;99.90
20057;DHT22;10189;49.546;7.906;2024-03-22T05:41:38;7.00;99.90
20057;DHT22;10189;49.546;7.906;2024-03-22T05:44:04;7.00;99.90
20057;DHT22;10189;49.546;7.906;2024-03-22T05:46:31;7.00;99.90
20057;DHT22;10189;49.546;7.906;2024-03-22T05:48:59;7.10;99.90
20057;DHT22;10189;49.546;7.906;2024-03-22T05:51:26;7.00;99.90
20057;DHT22;10189;49.546;7.906;2024-03-22T05:53:52;7.00;99.90
20057;DHT22;10189;49.546;7.906;2024-03-22T05:56:18;7.00;99.90
20057;DHT22;10189;49.546;7.906;2024-03-22T05:58:44;7.10;99.90
20057;DHT22;10189;49.546;7.906;2024-03-22T06:01:11;7.20;99.90
20057;DHT22;10189;49.546;7.906;2024-03-22T06:03:36;7.20;99.90
20057;DHT22;10189;49.546;7.906;2024-03-22T06:06:03;7.30;99.90
20057;DHT22;10189;49.546;7.906;2024-03-22T06:08:29;7.40;99.90
20057;DHT22;10189;49.546;7.906;2024-03-22T06:10:57;7.50;99.90
20057;DHT22;10189;49.546;7.906;2024-03-22T06:13:23;7.60;99.90
20057;DHT22;10189;49.546;7.906;2024-03-22T06:15:49;7.70;99.90
20057;DHT22;10189;49.546;7.906;2024-03-22T06:18:16;7.90;99.90
20057;DHT22;10189;49.546;7.906;2024-03-22T06:20:42;8.10;99.90
20057;DHT22;10189;49.546;7.906;2024-03-22T06:23:09;8.40;99.90
20057;DHT22;10189;49.546;7.906;2024-03-22T06:25:36;8.60;99.90
20057;DHT22;10189;49.546;7.906;2024-03-22T06:28:02;8.80;99.90
20057;DHT22;10189;49.546;7.906;2024-03-22T06:30:28;9.00;99.90
20057;DHT22;10189;49.546;7.906;2024-03-22T06:32:54;9.00;99.90
20057;DHT22;10189;49.546;7.906;2024-03-22T06:35:21;9.20;99.90
20057;DHT22;10189;49.546;7.906;2024-03-22T06:37:47;9.20;99.90
20057;DHT22;10189;49.546;7.906;2024-03-22T06:40:15;9.30;99.90
20057;DHT22;10189;49.546;7.906;2024-03-22T06:42:41;9.40;99.90
20057;DHT22;10189;49.546;7.906;2024-03-22T06:45:07;9.40;99.90
20057;DHT22;10189;49.546;7.906;2024-03-22T06:47:34;9.50;99.90
20057;DHT22;10189;49.546;7.906;2024-03-22T06:49:59;9.50;99.90
20057;DHT22;10189;49.546;7.906;2024-03-22T06:52:25;9.60;99.90
20057;DHT22;10189;49.546;7.906;2024-03-22T06:54:51;9.60;99.60
20057;DHT22;10189;49.546;7.906;2024-03-22T06:57:19;9.50;99.90
20057;DHT22;10189;49.546;7.906;2024-03-22T06:59:45;9.70;98.40
20057;DHT22;10189;49.546;7.906;2024-03-22T07:02:11;9.80;98.60
20057;DHT22;10189;49.546;7.906;2024-03-22T07:04:38;9.90;98.70
20057;DHT22;10189;49.546;7.906;2024-03-22T07:07:04;10.00;99.30
20057;DHT22;10189;49.546;7.906;2024-03-22T07:09:33;10.00;99.30
20057;DHT22;10189;49.546;7.906;2024-03-22T07:12:00;10.10;98.90
20057;DHT22;10189;49.546;7.906;2024-03-22T07:14:26;10.20;97.70
20057;DHT22;10189;49.546;7.906;2024-03-22T07:16:52;10.30;97.00
20057;DHT22;10189;49.546;7.906;2024-03-22T07:19:21;10.20;97.50
20057;DHT22;10189;49.546;7.906;2024-03-22T07:21:47;10.20;97.30
20057;DHT22;10189;49.546;7.906;2024-03-22T07:24:13;10.20;97.50
20057;DHT22;10189;49.546;7.906;2024-03-22T07:26:40;10.20;97.00
20057;DHT22;10189;49.546;7.906;2024-03-22T07:29:06;10.30;97.20
20057;DHT22;10189;49.546;7.906;2024-03-22T07:31:32;10.30;96.90
20057;DHT22;10189;49.546;7.906;2024-03-22T07:33:58;10.50;96.30
20057;DHT22;10189;49.546;7.906;2024-03-22T07:36:24;10.60;96.40
20057;DHT22;10189;49.546;7.906;2024-03-22T07:38:51;10.70;94.30
20057;DHT22;10189;49.546;7.906;2024-03-22T07:41:18;10.60;96.10
20057;DHT22;10189;49.546;7.906;2024-03-22T07:43:44;10.60;96.40
20057;DHT22;10189;49.546;7.906;2024-03-22T07:46:09;10.60;95.80
20057;DHT22;10189;49.546;7.906;2024-03-22T07:48:36;10.60;96.00
20057;DHT22;10189;49.546;7.906;2024-03-22T07:51:02;10.60;96.40
20057;DHT22;10189;49.546;7.906;2024-03-22T07:53:29;10.50;95.00
20057;DHT22;10189;49.546;7.906;2024-03-22T07:55:55;10.40;95.60
20057;DHT22;10189;49.546;7.906;2024-03-22T07:58:21;10.50;94.90
20057;DHT22;10189;49.546;7.906;2024-03-22T08:00:47;10.40;95.70
20057;DHT22;10189;49.546;7.906;2024-03-22T08:03:14;10.30;96.20
20057;DHT22;10189;49.546;7.906;2024-03-22T08:05:41;10.30;96.50
20057;DHT22;10189;49.546;7.906;2024-03-22T08:08:07;10.30;97.00
20057;DHT22;10189;49.546;7.906;2024-03-22T08:10:33;10.30;97.10
20057;DHT22;10189;49.546;7.906;2024-03-22T08:13:00;10.30;96.60
20057;DHT22;10189;49.546;7.906;2024-03-22T08:15:29;10.40;96.00
20057;DHT22;10189;49.546;7.906;2024-03-22T08:17:55;10.50;95.60
20057;DHT22;10189;49.546;7.906;2024-03-22T08:20:24;10.50;95.60
20057;DHT22;10189;49.546;7.906;2024-03-22T08:22:50;10.50;95.70
20057;DHT22;10189;49.546;7.906;2024-03-22T08:25:16;10.60;95.90
20057;DHT22;10189;49.546;7.906;2024-03-22T08:27:43;10.70;95.30
20057;DHT22;10189;49.546;7.906;2024-03-22T08:30:11;10.80;94.90
20057;DHT22;10189;49.546;7.906;2024-03-22T08:32:37;10.90;93.90
20057;DHT22;10189;49.546;7.906;2024-03-22T08:35:03;11.00;94.40
20057;DHT22;10189;49.546;7.906;2024-03-22T08:37:30;11.20;94.00
20057;DHT22;10189;49.546;7.906;2024-03-22T08:39:57;11.30;93.40
20057;DHT22;10189;49.546;7.906;2024-03-22T08:42:23;11.30;94.50
20057;DHT22;10189;49.546;7.906;2024-03-22T08:44:49;11.30;94.30
20057;DHT22;10189;49.546;7.906;2024-03-22T08:47:15;11.40;94.60
20057;DHT22;10189;49.546;7.906;2024-03-22T08:49:41;11.40;92.90
20057;DHT22;10189;49.546;7.906;2024-03-22T08:52:11;11.40;93.10
20057;DHT22;10189;49.546;7.906;2024-03-22T08:54:37;11.40;93.70
20057;DHT22;10189;49.546;7.906;2024-03-22T08:57:03;11.50;93.60
20057;DHT22;10189;49.546;7.906;2024-03-22T08:59:29;11.60;93.10
20057;DHT22;10189;49.546;7.906;2024-03-22T09:01:55;11.70;92.50
20057;DHT22;10189;49.546;7.906;2024-03-22T09:04:21;11.70;92.10
20057;DHT22;10189;49.546;7.906;2024-03-22T09:06:47;11.80;91.70
20057;DHT22;10189;49.546;7.906;2024-03-22T09:09:13;11.90;90.80
20057;DHT22;10189;49.546;7.906;2024-03-22T09:11:38;12.10;91.10
20057;DHT22;10189;49.546;7.906;2024-03-22T09:14:04;12.40;90.10
20057;DHT22;10189;49.546;7.906;2024-03-22T09:16:30;12.50;87.60
20057;DHT22;10189;49.546;7.906;2024-03-22T09:18:56;12.60;87.50
20057;DHT22;10189;49.546;7.906;2024-03-22T09:21:23;12.70;89.00
20057;DHT22;10189;49.546;7.906;2024-03-22T09:23:53;12.90;86.40
20057;DHT22;10189;49.546;7.906;2024-03-22T09:26:19;13.10;86.00
20057;DHT22;10189;49.546;7.906;2024-03-22T09:28:51;13.20;85.40
20057;DHT22;10189;49.546;7.906;2024-03-22T09:31:20;13.20;84.70
20057;DHT22;10189;49.546;7.906;2024-03-22T09:33:47;13.20;85.70
20057;DHT22;10189;49.546;7.906;2024-03-22T09:36:14;13.40;84.20
20057;DHT22;10189;49.546;7.906;2024-03-22T09:38:41;13.50;84.30
20057;DHT22;10189;49.546;7.906;2024-03-22T09:41:07;13.50;83.90
20057;DHT22;10189;49.546;7.906;2024-03-22T09:43:33;13.50;84.50
20057;DHT22;10189;49.546;7.906;2024-03-22T09:46:01;13.40;83.20
20057;DHT22;10189;49.546;7.906;2024-03-22T09:48:29;13.30;83.70
20057;DHT22;10189;49.546;7.906;2024-03-22T09:50:55;13.20;83.90
20057;DHT22;10189;49.546;7.906;2024-03-22T09:53:22;13.20;85.00
20057;DHT22;10189;49.546;7.906;2024-03-22T09:55:49;13.20;86.10
20057;DHT22;10189;49.546;7.906;2024-03-22T09:58:17;13.30;83.90
20057;DHT22;10189;49.546;7.906;2024-03-22T10:00:43;13.40;82.90
20057;DHT22;10189;49.546;7.906;2024-03-22T10:03:10;13.60;84.30
20057;DHT22;10189;49.546;7.906;2024-03-22T10:05:36;13.60;82.10
20057;DHT22;10189;49.546;7.906;2024-03-22T10:08:03;13.60;83.60
20057;DHT22;10189;49.546;7.906;2024-03-22T10:10:33;13.60;83.00
20057;DHT22;10189;49.546;7.906;2024-03-22T10:13:03;13.60;82.50
20057;DHT22;10189;49.546;7.906;2024-03-22T10:15:32;13.70;83.90
20057;DHT22;10189;49.546;7.906;2024-03-22T10:17:58;13.70;82.80
20057;DHT22;10189;49.546;7.906;2024-03-22T10:20:24;13.80;83.20
20057;DHT22;10189;49.546;7.906;2024-03-22T10:22:57;13.90;82.60
20057;DHT22;10189;49.546;7.906;2024-03-22T10:25:28;14.00;81.10
20057;DHT22;10189;49.546;7.906;2024-03-22T10:27:55;13.90;82.20
20057;DHT22;10189;49.546;7.906;2024-03-22T10:30:22;14.10;81.00
20057;DHT22;10189;49.546;7.906;2024-03-22T10:32:50;14.20;79.80
20057;DHT22;10189;49.546;7.906;2024-03-22T10:35:17;14.40;80.00
20057;DHT22;10189;49.546;7.906;2024-03-22T10:37:43;14.60;79.90
20057;DHT22;10189;49.546;7.906;2024-03-22T10:40:10;14.90;79.80
20057;DHT22;10189;49.546;7.906;2024-03-22T10:42:41;15.20;78.80
20057;DHT22;10189;49.546;7.906;2024-03-22T10:45:09;15.50;79.00
20057;DHT22;10189;49.546;7.906;2024-03-22T10:47:37;15.60;76.00
20057;DHT22;10189;49.546;7.906;2024-03-22T10:50:08;15.60;76.10
20057;DHT22;10189;49.546;7.906;2024-03-22T10:53:03;15.60;77.20
20057;DHT22;10189;49.546;7.906;2024-03-22T10:55:37;15.50;75.10
20057;DHT22;10189;49.546;7.906;2024-03-22T10:58:07;15.40;76.30
20057;DHT22;10189;49.546;7.906;2024-03-22T11:00:42;15.40;77.20
20057;DHT22;10189;49.546;7.906;2024-03-22T11:03:09;15.50;76.60
20057;DHT22;10189;49.546;7.906;2024-03-22T11:05:47;15.40;78.00
20057;DHT22;10189;49.546;7.906;2024-03-22T11:08:24;15.40;77.30
20057;DHT22;10189;49.546;7.906;2024-03-22T11:10:56;15.60;79.30
20057;DHT22;10189;49.546;7.906;2024-03-22T11:13:23;15.80;77.20
20057;DHT22;10189;49.546;7.906;2024-03-22T11:15:52;15.90;77.30
20057;DHT22;10189;49.546;7.906;2024-03-22T11:18:18;16.10;75.30
20057;DHT22;10189;49.546;7.906;2024-03-22T11:20:44;16.20;76.20
20057;DHT22;10189;49.546;7.906;2024-03-22T11:23:13;16.10;75.10
20057;DHT22;10189;49.546;7.906;2024-03-22T11:25:39;16.00;75.30
20057;DHT22;10189;49.546;7.906;2024-03-22T11:28:05;16.00;75.30
20057;DHT22;10189;49.546;7.906;2024-03-22T11:30:35;16.00;75.70
20057;DHT22;10189;49.546;7.906;2024-03-22T11:33:05;15.90;76.90
20057;DHT22;10189;49.546;7.906;2024-03-22T11:35:34;16.00;76.70
20057;DHT22;10189;49.546;7.906;2024-03-22T11:38:00;16.10;76.00
20057;DHT22;10189;49.546;7.906;2024-03-22T11:40:26;16.20;75.10
20057;DHT22;10189;49.546;7.906;2024-03-22T11:42:56;16.10;75.30
20057;DHT22;10189;49.546;7.906;2024-03-22T11:45:23;16.30;76.00
20057;DHT22;10189;49.546;7.906;2024-03-22T11:47:51;16.40;75.50
20057;DHT22;10189;49.546;7.906;2024-03-22T11:50:17;16.30;74.70
20057;DHT22;10189;49.546;7.906;2024-03-22T11:52:44;16.00;75.80
20057;DHT22;10189;49.546;7.906;2024-03-22T11:55:13;16.10;75.90
20057;DHT22;10189;49.546;7.906;2024-03-22T11:57:40;16.40;76.20
20057;DHT22;10189;49.546;7.906;2024-03-22T12:00:07;16.50;76.30
20057;DHT22;10189;49.546;7.906;2024-03-22T12:02:40;16.70;74.60
20057;DHT22;10189;49.546;7.906;2024-03-22T12:05:07;16.80;74.60
20057;DHT22;10189;49.546;7.906;2024-03-22T12:07:35;16.80;74.20
20057;DHT22;10189;49.546;7.906;2024-03-22T12:10:00;16.70;76.90
20057;DHT22;10189;49.546;7.906;2024-03-22T12:12:26;16.80;74.30
20057;DHT22;10189;49.546;7.906;2024-03-22T12:14:53;16.70;73.70
20057;DHT22;10189;49.546;7.906;2024-03-22T12:17:19;16.70;76.10
20057;DHT22;10189;49.546;7.906;2024-03-22T12:19:44;16.90;76.00
20057;DHT22;10189;49.546;7.906;2024-03-22T12:22:10;17.20;75.90
20057;DHT22;10189;49.546;7.906;2024-03-22T12:24:37;17.30;73.30
20057;DHT22;10189;49.546;7.906;2024-03-22T12:27:03;17.40;73.60
20057;DHT22;10189;49.546;7.906;2024-03-22T12:29:32;17.70;73.10
20057;DHT22;10189;49.546;7.906;2024-03-22T12:31:59;18.00;73.40
20057;DHT22;10189;49.546;7.906;2024-03-22T12:34:29;18.10;70.60
20057;DHT22;10189;49.546;7.906;2024-03-22T12:36:57;18.00;71.50
20057;DHT22;10189;49.546;7.906;2024-03-22T12:39:23;17.90;71.70
20057;DHT22;10189;49.546;7.906;2024-03-22T12:41:49;17.80;69.90
20057;DHT22;10189;49.546;7.906;2024-03-22T12:44:15;17.60;71.40
20057;DHT22;10189;49.546;7.906;2024-03-22T12:46:41;17.60;71.10
20057;DHT22;10189;49.546;7.906;2024-03-22T12:49:09;17.70;70.80
20057;DHT22;10189;49.546;7.906;2024-03-22T12:51:37;18.00;72.20
20057;DHT22;10189;49.546;7.906;2024-03-22T12:54:04;18.20;70.30
20057;DHT22;10189;49.546;7.906;2024-03-22T12:56:31;18.20;70.20
20057;DHT22;10189;49.546;7.906;2024-03-22T12:58:59;17.90;71.10
20057;DHT22;10189;49.546;7.906;2024-03-22T13:01:25;17.90;71.50
20057;DHT22;10189;49.546;7.906;2024-03-22T13:03:51;17.60;72.00
20057;DHT22;10189;49.546;7.906;2024-03-22T13:06:18;17.70;71.50
20057;DHT22;10189;49.546;7.906;2024-03-22T13:08:44;17.70;72.10
20057;DHT22;10189;49.546;7.906;2024-03-22T13:11:09;17.70;72.20
20057;DHT22;10189;49.546;7.906;2024-03-22T13:13:36;17.70;71.60
20057;DHT22;10189;49.546;7.906;2024-03-22T13:16:02;17.70;72.50
20057;DHT22;10189;49.546;7.906;2024-03-22T13:18:29;17.70;71.00
20057;DHT22;10189;49.546;7.906;2024-03-22T13:20:55;17.70;71.70
20057;DHT22;10189;49.546;7.906;2024-03-22T13:23:21;17.50;72.00
20057;DHT22;10189;49.546;7.906;2024-03-22T13:25:48;17.30;72.40
20057;DHT22;10189;49.546;7.906;2024-03-22T13:28:14;17.30;72.50
20057;DHT22;10189;49.546;7.906;2024-03-22T13:30:40;17.20;72.50
20057;DHT22;10189;49.546;7.906;2024-03-22T13:33:07;17.30;73.60
20057;DHT22;10189;49.546;7.906;2024-03-22T13:35:34;17.30;73.40
20057;DHT22;10189;49.546;7.906;2024-03-22T13:38:00;17.10;73.30
20057;DHT22;10189;49.546;7.906;2024-03-22T13:40:26;16.90;73.60
20057;DHT22;10189;49.546;7.906;2024-03-22T13:42:55;17.00;74.10
20057;DHT22;10189;49.546;7.906;2024-03-22T13:45:21;17.00;73.70
20057;DHT22;10189;49.546;7.906;2024-03-22T13:47:47;16.80;74.20
20057;DHT22;10189;49.546;7.906;2024-03-22T13:50:13;16.60;74.10
20057;DHT22;10189;49.546;7.906;2024-03-22T13:52:39;16.70;75.10
20057;DHT22;10189;49.546;7.906;2024-03-22T13:55:05;16.80;74.50
20057;DHT22;10189;49.546;7.906;2024-03-22T13:57:32;16.60;75.60
20057;DHT22;10189;49.546;7.906;2024-03-22T13:59:58;16.60;75.30
20057;DHT22;10189;49.546;7.906;2024-03-22T14:02:24;16.40;75.60
20057;DHT22;10189;49.546;7.906;2024-03-22T14:04:50;16.30;75.80
20057;DHT22;10189;49.546;7.906;2024-03-22T14:07:16;16.20;76.70
20057;DHT22;10189;49.546;7.906;2024-03-22T14:09:43;16.20;76.80
20057;DHT22;10189;49.546;7.906;2024-03-22T14:12:09;16.10;77.20
20057;DHT22;10189;49.546;7.906;2024-03-22T14:14:35;15.90;77.10
20057;DHT22;10189;49.546;7.906;2024-03-22T14:17:01;15.70;78.20
20057;DHT22;10189;49.546;7.906;2024-03-22T14:19:27;15.70;79.80
20057;DHT22;10189;49.546;7.906;2024-03-22T14:21:53;15.70;78.30
20057;DHT22;10189;49.546;7.906;2024-03-22T14:24:19;15.70;77.90
20057;DHT22;10189;49.546;7.906;2024-03-22T14:26:45;15.70;77.70
20057;DHT22;10189;49.546;7.906;2024-03-22T14:29:11;15.70;78.30
20057;DHT22;10189;49.546;7.906;2024-03-22T14:31:38;15.90;77.90
20057;DHT22;10189;49.546;7.906;2024-03-22T14:34:06;16.00;76.80
20057;DHT22;10189;49.546;7.906;2024-03-22T14:36:32;16.00;76.00
20057;DHT22;10189;49.546;7.906;2024-03-22T14:38:58;16.10;76.30
20057;DHT22;10189;49.546;7.906;2024-03-22T14:41:25;16.30;75.90
20057;DHT22;10189;49.546;7.906;2024-03-22T14:43:51;16.40;75.80
20057;DHT22;10189;49.546;7.906;2024-03-22T14:46:17;16.60;74.00
20057;DHT22;10189;49.546;7.906;2024-03-22T14:48:50;16.60;73.70
20057;DHT22;10189;49.546;7.906;2024-03-22T14:51:16;16.80;73.30
20057;DHT22;10189;49.546;7.906;2024-03-22T14:53:42;16.80;74.30
20057;DHT22;10189;49.546;7.906;2024-03-22T14:56:08;16.80;73.30
20057;DHT22;10189;49.546;7.906;2024-03-22T14:58:34;16.90;73.70
20057;DHT22;10189;49.546;7.906;2024-03-22T15:01:02;17.10;74.00
20057;DHT22;10189;49.546;7.906;2024-03-22T15:03:29;17.10;72.20
20057;DHT22;10189;49.546;7.906;2024-03-22T15:05:57;17.40;72.50
20057;DHT22;10189;49.546;7.906;2024-03-22T15:08:25;17.50;73.00
20057;DHT22;10189;49.546;7.906;2024-03-22T15:10:53;17.50;72.60
20057;DHT22;10189;49.546;7.906;2024-03-22T15:13:20;17.40;72.20
20057;DHT22;10189;49.546;7.906;2024-03-22T15:15:56;17.30;72.20
20057;DHT22;10189;49.546;7.906;2024-03-22T15:18:23;17.30;71.70
20057;DHT22;10189;49.546;7.906;2024-03-22T15:20:50;17.20;72.70
20057;DHT22;10189;49.546;7.906;2024-03-22T15:23:17;17.10;72.00
20057;DHT22;10189;49.546;7.906;2024-03-22T15:25:45;17.00;73.30
20057;DHT22;10189;49.546;7.906;2024-03-22T15:28:13;17.10;72.90
20057;DHT22;10189;49.546;7.906;2024-03-22T15:30:39;17.10;72.80
20057;DHT22;10189;49.546;7.906;2024-03-22T15:33:05;17.20;71.40
20057;DHT22;10189;49.546;7.906;2024-03-22T15:35:32;17.20;71.90
20057;DHT22;10189;49.546;7.906;2024-03-22T15:37:58;17.00;72.30